Time;durP1;ratioP1;P1;durP2;ratioP2;P2;SDS_P1;SDS_P2;PMS_P1;PMS_P2;Temp;Humidity;BMP_temperature;BMP_pressure;BME280_temperature;BME280_humidity;BME280_pressure;Samples;Min_cycle;Max_cycle;Signal;HPM_P1;HPM_P2
2021/05/20 00:02:10;;;;;;;4.65;2.17;;;13.60;82.60;;;;;;5095387;28;20023;-63
2021/05/20 00:04:36;;;;;;;3.33;2.17;;;13.60;83.20;;;;;;5095299;28;20028;-64
2021/05/20 00:07:02;;;;;;;7.20;2.38;;;13.60;83.20;;;;;;5095063;28;20023;-63
2021/05/20 00:09:28;;;;;;;9.27;2.60;;;13.50;83.20;;;;;;5094911;28;20060;-64
2021/05/20 00:11:54;;;;;;;3.40;2.30;;;13.50;82.90;;;;;;5093713;28;20032;-63
2021/05/20 00:14:20;;;;;;;3.83;2.08;;;13.50;82.80;;;;;;5095124;28;20016;-63
2021/05/20 00:16:45;;;;;;;5.28;1.90;;;13.50;82.20;;;;;;5095017;28;20024;-64
2021/05/20 00:19:12;;;;;;;6.13;2.20;;;13.50;82.50;;;;;;5095058;28;20012;-64
2021/05/20 00:21:37;;;;;;;4.75;2.10;;;13.50;82.60;;;;;;5095120;28;20024;-70
2021/05/20 00:24:04;;;;;;;3.05;1.80;;;13.50;83.40;;;;;;5094992;28;20031;-64
2021/05/20 00:26:32;;;;;;;3.22;2.00;;;13.50;82.80;;;;;;5094764;28;20073;-63
2021/05/20 00:28:57;;;;;;;5.20;1.90;;;13.40;82.60;;;;;;5094856;28;20028;-63
2021/05/20 00:31:23;;;;;;;4.10;1.70;;;13.40;82.50;;;;;;5094844;28;20358;-64
2021/05/20 00:33:49;;;;;;;5.97;1.70;;;13.40;82.90;;;;;;5094822;28;20032;-64
2021/05/20 00:36:14;;;;;;;5.40;2.00;;;13.40;82.70;;;;;;5094573;28;20388;-63
2021/05/20 00:38:40;;;;;;;5.68;2.22;;;13.40;82.90;;;;;;5094699;28;20023;-63
2021/05/20 00:41:06;;;;;;;4.88;2.08;;;13.30;82.80;;;;;;5094465;28;20054;-64
2021/05/20 00:43:32;;;;;;;5.93;2.30;;;13.30;82.80;;;;;;5094633;28;20031;-64
2021/05/20 00:45:57;;;;;;;2.92;1.80;;;13.30;82.80;;;;;;5094621;28;20032;-64
2021/05/20 00:48:23;;;;;;;4.93;1.80;;;13.30;82.70;;;;;;5094305;28;20054;-72
2021/05/20 00:50:49;;;;;;;6.15;2.05;;;13.30;82.80;;;;;;5094200;28;20100;-64
2021/05/20 00:53:16;;;;;;;8.73;2.47;;;13.30;82.70;;;;;;5094216;28;20028;-64
2021/05/20 00:55:42;;;;;;;4.80;2.10;;;13.30;82.80;;;;;;5093964;28;20044;-63
2021/05/20 00:58:09;;;;;;;7.55;2.42;;;13.30;82.70;;;;;;5092575;28;20419;-64
2021/05/20 01:00:36;;;;;;;3.08;2.00;;;13.30;82.70;;;;;;5091368;28;20030;-64
2021/05/20 01:03:02;;;;;;;10.02;2.72;;;13.20;82.90;;;;;;5091309;28;20074;-64
2021/05/20 01:05:29;;;;;;;3.08;2.45;;;13.20;82.80;;;;;;5093037;28;20039;-64
2021/05/20 01:07:55;;;;;;;7.88;2.80;;;13.10;82.60;;;;;;5092601;28;20020;-64
2021/05/20 01:10:21;;;;;;;4.55;2.40;;;13.10;82.70;;;;;;5094084;28;20024;-64
2021/05/20 01:12:47;;;;;;;5.55;3.25;;;13.10;82.70;;;;;;5093652;28;20063;-63
2021/05/20 01:15:34;;;;;;;7.00;2.30;;;13.10;82.80;;;;;;5093710;28;20048;-71
2021/05/20 01:18:02;;;;;;;3.72;2.17;;;13.10;82.90;;;;;;5093453;28;20097;-64
2021/05/20 01:20:30;;;;;;;4.28;2.70;;;13.10;83.00;;;;;;5093606;28;20020;-64
2021/05/20 01:23:06;;;;;;;6.18;2.47;;;13.00;82.90;;;;;;5093531;28;20051;-64
2021/05/20 01:25:33;;;;;;;7.10;2.30;;;13.00;83.30;;;;;;5093754;28;20062;-71
2021/05/20 01:28:03;;;;;;;7.28;2.20;;;13.00;82.50;;;;;;5093624;28;20028;-64
2021/05/20 01:30:33;;;;;;;5.38;1.98;;;13.00;82.60;;;;;;5093798;28;20060;-64
2021/05/20 01:32:59;;;;;;;5.50;2.08;;;13.00;82.50;;;;;;5093659;28;20129;-64
2021/05/20 01:35:25;;;;;;;8.32;1.90;;;13.00;82.00;;;;;;5093009;28;20036;-64
2021/05/20 01:37:52;;;;;;;4.30;1.88;;;12.90;82.10;;;;;;5093217;28;20400;-64
2021/05/20 01:40:18;;;;;;;2.67;1.88;;;12.90;82.00;;;;;;5093402;28;20021;-63
2021/05/20 01:42:43;;;;;;;5.20;2.47;;;12.90;82.00;;;;;;5093342;28;20024;-64
2021/05/20 01:45:10;;;;;;;6.40;2.10;;;12.90;81.90;;;;;;5093624;28;20111;-70
2021/05/20 01:47:38;;;;;;;3.90;1.88;;;12.80;81.90;;;;;;5092961;28;20024;-64
2021/05/20 01:50:05;;;;;;;9.50;2.00;;;12.80;82.00;;;;;;5092928;28;20036;-64
2021/05/20 01:52:30;;;;;;;5.53;2.15;;;12.80;81.80;;;;;;5092932;28;20043;-63
2021/05/20 01:54:57;;;;;;;4.10;2.10;;;12.70;81.90;;;;;;5092910;28;20377;-63
2021/05/20 01:57:23;;;;;;;3.05;2.17;;;12.70;81.90;;;;;;5093202;28;20077;-64
2021/05/20 01:59:48;;;;;;;4.72;2.33;;;12.80;82.00;;;;;;5092836;28;20028;-63
2021/05/20 02:02:14;;;;;;;5.72;2.10;;;12.70;81.80;;;;;;5092905;28;20036;-64
2021/05/20 02:04:40;;;;;;;9.45;1.92;;;12.70;82.00;;;;;;5093129;28;20028;-63
2021/05/20 02:07:05;;;;;;;7.75;2.22;;;12.70;82.10;;;;;;5093142;28;20050;-64
2021/05/20 02:09:31;;;;;;;6.63;1.90;;;12.70;82.10;;;;;;5093066;28;20020;-63
2021/05/20 02:11:57;;;;;;;5.50;1.77;;;12.60;81.90;;;;;;5093131;28;20035;-63
2021/05/20 02:14:22;;;;;;;8.23;1.83;;;12.60;82.00;;;;;;5092986;28;20035;-64
2021/05/20 02:16:48;;;;;;;2.95;1.85;;;12.60;82.20;;;;;;5093037;28;20114;-65
2021/05/20 02:19:14;;;;;;;4.00;2.20;;;12.60;82.20;;;;;;5093069;28;20028;-64
2021/05/20 02:21:39;;;;;;;4.43;2.10;;;12.60;82.30;;;;;;5093193;28;20024;-64
2021/05/20 02:24:05;;;;;;;5.20;2.17;;;12.50;82.30;;;;;;5093313;28;20028;-64
2021/05/20 02:26:32;;;;;;;4.00;2.08;;;12.50;82.50;;;;;;5092914;28;20376;-64
2021/05/20 02:28:58;;;;;;;6.80;1.70;;;12.50;82.50;;;;;;5093079;28;20680;-64
2021/05/20 02:31:24;;;;;;;2.47;1.73;;;12.50;82.60;;;;;;5093186;28;20048;-64
2021/05/20 02:33:49;;;;;;;3.85;1.67;;;12.50;82.40;;;;;;5093137;28;20055;-64
2021/05/20 02:36:15;;;;;;;3.28;1.98;;;12.50;82.50;;;;;;5092983;28;20028;-64
2021/05/20 02:38:41;;;;;;;3.58;1.70;;;12.50;82.30;;;;;;5092839;28;20027;-64
2021/05/20 02:41:07;;;;;;;3.03;1.80;;;12.40;82.10;;;;;;5092694;28;20024;-67
2021/05/20 02:43:32;;;;;;;5.18;1.85;;;12.40;82.40;;;;;;5091706;28;20024;-64
2021/05/20 02:46:00;;;;;;;4.70;1.98;;;12.50;82.50;;;;;;5093086;28;20073;-64
2021/05/20 02:48:26;;;;;;;3.80;1.48;;;12.50;82.20;;;;;;5092776;28;20027;-67
2021/05/20 02:50:52;;;;;;;4.93;2.33;;;12.40;82.50;;;;;;5092649;28;20480;-64
2021/05/20 02:53:17;;;;;;;6.47;2.08;;;12.40;82.40;;;;;;5092703;28;20039;-64
2021/05/20 02:55:43;;;;;;;3.85;2.08;;;12.40;82.40;;;;;;5091027;28;20044;-64
2021/05/20 02:58:09;;;;;;;6.28;1.83;;;12.40;82.30;;;;;;5092510;28;20434;-64
2021/05/20 03:00:37;;;;;;;4.35;1.80;;;12.40;82.00;;;;;;5092556;28;20020;-64
2021/05/20 03:03:03;;;;;;;5.50;2.08;;;12.40;82.10;;;;;;5096387;28;20526;-64
2021/05/20 03:05:30;;;;;;;7.18;1.50;;;12.40;82.40;;;;;;5096702;28;20024;-64
2021/05/20 03:07:57;;;;;;;3.13;2.00;;;12.40;82.40;;;;;;5096837;28;20028;-71
2021/05/20 03:10:23;;;;;;;4.03;1.80;;;12.40;82.30;;;;;;5096341;28;20021;-64
2021/05/20 03:12:49;;;;;;;4.43;1.60;;;12.40;82.30;;;;;;5096337;28;20036;-73
2021/05/20 03:15:15;;;;;;;3.85;1.70;;;12.30;82.40;;;;;;5096296;28;20380;-64
2021/05/20 03:17:41;;;;;;;4.28;1.60;;;12.30;82.40;;;;;;5096387;28;20024;-64
2021/05/20 03:20:07;;;;;;;3.53;1.70;;;12.30;82.50;;;;;;5096125;28;20059;-64
2021/05/20 03:22:33;;;;;;;2.70;1.67;;;12.30;82.50;;;;;;5096340;28;20054;-64
2021/05/20 03:24:59;;;;;;;2.97;1.60;;;12.30;82.90;;;;;;5096229;28;20024;-65
2021/05/20 03:27:25;;;;;;;5.28;1.73;;;12.30;82.70;;;;;;5096268;28;20048;-64
2021/05/20 03:29:50;;;;;;;5.32;1.60;;;12.20;82.60;;;;;;5095917;28;20430;-64
2021/05/20 03:32:16;;;;;;;3.70;1.58;;;12.20;82.40;;;;;;5096110;28;20033;-64
2021/05/20 03:34:42;;;;;;;9.10;1.48;;;12.20;82.80;;;;;;5096139;28;20431;-64
2021/05/20 03:37:08;;;;;;;2.90;1.50;;;12.20;82.90;;;;;;5096254;28;20028;-64
2021/05/20 03:39:34;;;;;;;5.38;1.50;;;12.20;82.80;;;;;;5095675;28;20048;-64
2021/05/20 03:42:01;;;;;;;1.83;1.15;;;12.20;82.90;;;;;;5096013;28;20047;-64
2021/05/20 03:44:27;;;;;;;3.80;1.20;;;12.20;82.80;;;;;;5095817;28;20028;-64
2021/05/20 03:46:54;;;;;;;2.05;1.30;;;12.20;82.80;;;;;;5095580;28;20019;-64
2021/05/20 03:49:20;;;;;;;9.75;1.80;;;12.10;82.70;;;;;;5095571;28;20021;-64
2021/05/20 03:51:45;;;;;;;4.78;1.42;;;12.10;82.60;;;;;;5095529;28;20024;-64
2021/05/20 03:54:11;;;;;;;2.42;1.20;;;12.10;83.30;;;;;;5095327;28;20070;-64
2021/05/20 03:56:37;;;;;;;3.40;1.38;;;12.20;83.00;;;;;;5095324;28;20354;-64
2021/05/20 03:59:03;;;;;;;4.15;1.50;;;12.20;83.10;;;;;;5095267;28;20024;-64
2021/05/20 04:01:29;;;;;;;3.45;1.40;;;12.10;83.00;;;;;;5095422;28;20024;-64
2021/05/20 04:03:55;;;;;;;5.97;1.25;;;12.20;83.10;;;;;;5095306;28;20036;-64
2021/05/20 04:06:21;;;;;;;2.97;1.30;;;12.20;83.10;;;;;;5094124;28;20023;-64
2021/05/20 04:08:46;;;;;;;2.63;1.20;;;12.20;83.10;;;;;;5095517;28;20035;-64
2021/05/20 04:11:12;;;;;;;6.15;1.30;;;12.20;83.10;;;;;;5094770;28;20103;-64
2021/05/20 04:13:41;;;;;;;5.32;1.52;;;12.20;82.90;;;;;;5095093;28;20036;-64
2021/05/20 04:16:11;;;;;;;3.35;1.33;;;12.20;82.80;;;;;;5095080;28;20039;-64
2021/05/20 04:18:37;;;;;;;3.15;1.40;;;12.20;82.70;;;;;;5094714;28;20404;-64
2021/05/20 04:21:03;;;;;;;9.20;1.50;;;12.20;82.70;;;;;;5095267;28;20027;-64
2021/05/20 04:23:29;;;;;;;1.77;0.98;;;12.20;82.50;;;;;;5093848;28;20063;-64
2021/05/20 04:25:55;;;;;;;2.85;1.15;;;12.20;82.70;;;;;;5094795;28;20048;-64
2021/05/20 04:28:21;;;;;;;3.70;1.20;;;12.20;82.60;;;;;;5095022;28;20464;-64
2021/05/20 04:30:47;;;;;;;6.10;1.50;;;12.20;83.10;;;;;;5094861;28;20115;-64
2021/05/20 04:33:13;;;;;;;1.73;1.00;;;12.20;82.90;;;;;;5094765;28;20423;-64
2021/05/20 04:35:40;;;;;;;3.97;1.30;;;12.20;82.60;;;;;;5094647;28;20044;-64
2021/05/20 04:38:07;;;;;;;4.05;1.30;;;12.10;82.70;;;;;;5094599;28;20024;-63
2021/05/20 04:40:34;;;;;;;3.85;1.30;;;12.10;82.50;;;;;;5094523;28;20028;-63
2021/05/20 04:43:00;;;;;;;2.75;1.00;;;12.10;82.20;;;;;;5094842;28;20472;-64
2021/05/20 04:45:26;;;;;;;4.03;1.50;;;12.10;82.20;;;;;;5094502;28;20035;-71
2021/05/20 04:47:52;;;;;;;2.03;1.30;;;12.10;82.20;;;;;;5094271;28;20024;-64
2021/05/20 04:50:18;;;;;;;8.05;1.48;;;12.10;82.50;;;;;;5094240;28;20043;-64
2021/05/20 04:52:46;;;;;;;4.13;1.52;;;12.10;82.40;;;;;;5094287;28;20039;-63
2021/05/20 04:55:13;;;;;;;3.70;1.38;;;12.10;82.30;;;;;;5094298;28;20051;-64
2021/05/20 04:57:39;;;;;;;1.77;1.20;;;12.10;82.20;;;;;;5094656;28;20031;-63
2021/05/20 05:00:09;;;;;;;4.68;1.52;;;12.10;82.00;;;;;;5094168;28;20024;-63
2021/05/20 05:02:35;;;;;;;4.38;1.10;;;12.10;82.60;;;;;;5094193;28;20157;-64
2021/05/20 05:05:01;;;;;;;3.10;1.38;;;12.10;82.70;;;;;;5094446;28;20099;-63
2021/05/20 05:07:27;;;;;;;2.13;1.42;;;12.10;82.70;;;;;;5094060;28;20120;-63
2021/05/20 05:09:52;;;;;;;4.28;1.50;;;12.10;82.90;;;;;;5094201;28;20498;-64
2021/05/20 05:12:18;;;;;;;3.47;1.60;;;12.10;82.90;;;;;;5094179;28;20498;-64
2021/05/20 05:14:44;;;;;;;3.67;1.85;;;12.10;82.90;;;;;;5094206;28;20028;-65
2021/05/20 05:17:10;;;;;;;4.75;1.75;;;12.20;82.90;;;;;;5094043;28;20032;-72
2021/05/20 05:19:36;;;;;;;9.98;2.40;;;12.20;83.30;;;;;;5093743;28;20445;-64
2021/05/20 05:22:02;;;;;;;6.35;2.30;;;12.20;83.50;;;;;;5093732;28;20095;-64
2021/05/20 05:24:32;;;;;;;7.30;2.40;;;12.20;83.40;;;;;;5093267;28;20055;-67
2021/05/20 05:26:58;;;;;;;3.40;2.47;;;12.30;83.30;;;;;;5093909;28;20020;-63
2021/05/20 05:29:24;;;;;;;9.68;2.88;;;12.30;83.30;;;;;;5093733;28;20028;-63
2021/05/20 05:31:50;;;;;;;4.03;2.53;;;12.40;83.20;;;;;;5093802;28;20024;-64
2021/05/20 05:34:16;;;;;;;4.72;2.08;;;12.40;83.20;;;;;;5095020;28;20035;-64
2021/05/20 05:36:43;;;;;;;3.38;2.20;;;12.40;83.20;;;;;;5092397;28;20075;-64
2021/05/20 05:39:09;;;;;;;7.63;2.17;;;12.50;83.50;;;;;;5092615;28;20499;-64
2021/05/20 05:41:35;;;;;;;6.30;1.70;;;12.50;83.30;;;;;;5092813;28;20028;-63
2021/05/20 05:44:01;;;;;;;3.53;1.40;;;12.60;83.10;;;;;;5092626;28;20103;-63
2021/05/20 05:46:27;;;;;;;2.88;1.40;;;12.60;82.40;;;;;;5093223;28;20028;-63
2021/05/20 05:48:54;;;;;;;4.88;1.50;;;12.60;81.80;;;;;;5092151;28;20120;-64
2021/05/20 05:51:22;;;;;;;5.47;1.58;;;12.70;80.80;;;;;;5093395;28;20035;-64
2021/05/20 05:53:48;;;;;;;7.10;1.45;;;12.80;80.90;;;;;;5092606;28;20430;-64
2021/05/20 05:56:13;;;;;;;3.95;1.15;;;12.80;81.20;;;;;;5091980;28;20020;-64
2021/05/20 05:58:39;;;;;;;5.28;1.58;;;12.80;81.30;;;;;;5092044;28;20025;-63
2021/05/20 06:01:05;;;;;;;7.03;1.50;;;12.90;81.30;;;;;;5092169;28;20024;-64
2021/05/20 06:03:33;;;;;;;4.82;1.83;;;13.00;81.20;;;;;;5092654;28;20032;-63
2021/05/20 06:05:59;;;;;;;2.22;1.27;;;13.00;80.50;;;;;;5093089;28;20032;-63
2021/05/20 06:08:24;;;;;;;2.90;1.40;;;13.00;80.20;;;;;;5093067;28;20024;-63
2021/05/20 06:10:50;;;;;;;4.22;1.48;;;13.10;80.20;;;;;;5093116;28;20024;-63
2021/05/20 06:13:16;;;;;;;1.83;1.20;;;13.00;80.00;;;;;;5092982;28;20043;-63
2021/05/20 06:15:42;;;;;;;4.38;1.33;;;13.10;79.70;;;;;;5093325;28;20028;-63
2021/05/20 06:18:09;;;;;;;3.45;1.25;;;13.10;79.60;;;;;;5093190;28;20055;-67
2021/05/20 06:20:35;;;;;;;4.53;1.13;;;13.20;79.30;;;;;;5092967;28;20565;-64
2021/05/20 06:23:00;;;;;;;2.15;1.05;;;13.20;79.00;;;;;;5092786;28;20114;-64
2021/05/20 06:25:26;;;;;;;5.53;1.25;;;13.30;78.70;;;;;;5093388;28;20118;-64
2021/05/20 06:27:52;;;;;;;2.15;1.05;;;13.30;78.80;;;;;;5093165;28;20028;-64
2021/05/20 06:30:18;;;;;;;4.47;1.25;;;13.30;79.00;;;;;;5092979;28;20032;-64
2021/05/20 06:32:44;;;;;;;7.53;1.33;;;13.40;79.00;;;;;;5093214;28;20040;-64
2021/05/20 06:35:10;;;;;;;5.88;1.58;;;13.40;79.00;;;;;;5095088;28;20100;-64
2021/05/20 06:37:36;;;;;;;3.15;1.30;;;13.40;78.70;;;;;;5095988;28;20035;-64
2021/05/20 06:40:03;;;;;;;6.38;1.30;;;13.50;78.50;;;;;;5097156;28;20027;-64
2021/05/20 06:42:29;;;;;;;4.65;1.17;;;13.50;78.30;;;;;;5096568;28;20034;-64
2021/05/20 06:44:55;;;;;;;1.52;1.02;;;13.60;78.40;;;;;;5097013;28;20445;-67
2021/05/20 06:47:20;;;;;;;3.17;1.10;;;13.70;78.10;;;;;;5096963;28;20058;-67
2021/05/20 06:49:46;;;;;;;2.13;1.00;;;13.70;77.30;;;;;;5096958;28;20103;-65
2021/05/20 06:52:12;;;;;;;2.33;1.10;;;13.70;76.80;;;;;;5095198;28;20040;-66
2021/05/20 06:54:38;;;;;;;1.90;0.82;;;;;;;;;;5096393;28;20105;-65
2021/05/20 06:57:16;;;;;;;5.45;1.58;;;13.90;76.20;;;;;;5096528;28;20043;-65
2021/05/20 06:59:58;;;;;;;4.63;1.13;;;13.90;76.10;;;;;;5095789;28;20047;-67
2021/05/20 07:02:27;;;;;;;7.28;1.30;;;14.00;76.10;;;;;;5088262;28;20033;-65
2021/05/20 07:04:53;;;;;;;3.55;1.13;;;14.00;75.70;;;;;;5076045;28;20024;-67
2021/05/20 07:07:20;;;;;;;4.60;1.40;;;14.00;75.10;;;;;;5088210;28;20020;-66
2021/05/20 07:09:47;;;;;;;2.03;1.20;;;14.00;75.80;;;;;;5096253;28;20379;-67
2021/05/20 07:12:14;;;;;;;5.15;1.17;;;14.10;75.30;;;;;;5096008;28;20035;-67
2021/05/20 07:14:40;;;;;;;2.47;1.30;;;14.10;75.70;;;;;;5096256;28;20024;-67
2021/05/20 07:17:07;;;;;;;3.42;1.73;;;14.20;76.10;;;;;;5096091;28;20016;-67
2021/05/20 07:19:33;;;;;;;5.60;2.22;;;14.30;76.10;;;;;;5095699;28;20548;-67
2021/05/20 07:21:59;;;;;;;3.42;1.83;;;14.40;76.10;;;;;;5095575;28;20076;-67
2021/05/20 07:24:25;;;;;;;4.03;2.25;;;14.50;76.90;;;;;;5095550;28;20103;-67
2021/05/20 07:26:52;;;;;;;5.63;2.00;;;14.60;76.80;;;;;;5094887;28;20059;-66
2021/05/20 07:29:17;;;;;;;4.10;2.00;;;14.70;75.90;;;;;;5095662;28;20028;-67
2021/05/20 07:31:43;;;;;;;3.58;2.30;;;14.70;76.00;;;;;;5095931;28;20032;-66
2021/05/20 07:34:09;;;;;;;4.18;2.00;;;14.80;76.10;;;;;;5095606;28;20111;-67
2021/05/20 07:36:35;;;;;;;3.35;1.92;;;14.90;77.20;;;;;;5095640;28;20028;-65
2021/05/20 07:39:02;;;;;;;6.45;2.65;;;15.00;76.60;;;;;;5096073;28;20036;-65
2021/05/20 07:41:29;;;;;;;2.53;2.00;;;15.10;76.30;;;;;;5095972;28;20081;-65
2021/05/20 07:43:55;;;;;;;3.35;2.03;;;15.20;75.70;;;;;;5095822;28;20032;-71
2021/05/20 07:46:21;;;;;;;9.85;2.40;;;15.20;75.00;;;;;;5095019;28;20047;-65
2021/05/20 07:48:47;;;;;;;3.97;1.95;;;15.30;75.00;;;;;;5095663;28;20085;-65
2021/05/20 07:51:12;;;;;;;4.57;1.80;;;15.40;74.50;;;;;;5095889;28;20032;-65
2021/05/20 07:53:38;;;;;;;5.13;1.70;;;15.40;74.50;;;;;;5095663;28;20039;-66
2021/05/20 07:56:04;;;;;;;3.03;1.67;;;15.50;74.00;;;;;;5095770;28;20456;-64
2021/05/20 07:58:31;;;;;;;2.50;1.58;;;15.70;74.00;;;;;;5095306;28;20055;-65
2021/05/20 08:01:00;;;;;;;6.03;1.77;;;15.70;74.50;;;;;;5095550;28;20469;-71
2021/05/20 08:04:28;;;;;;;3.10;1.90;;;15.80;74.20;;;;;;5095382;28;20039;-65
2021/05/20 08:06:25;;;;;;;2.83;1.80;;;15.90;73.80;;;;;;5085873;28;20062;-64
2021/05/20 08:09:01;;;;;;;5.20;2.13;;;16.00;73.40;;;;;;5095219;28;20099;-65
2021/05/20 08:11:26;;;;;;;3.63;1.30;;;16.10;72.40;;;;;;5095316;28;20016;-65
2021/05/20 08:13:52;;;;;;;2.63;1.30;;;16.20;71.80;;;;;;5095242;28;20036;-65
2021/05/20 08:16:19;;;;;;;2.53;1.42;;;16.20;71.50;;;;;;5095569;28;20487;-65
2021/05/20 08:18:45;;;;;;;2.35;1.23;;;16.30;70.50;;;;;;5095240;28;20028;-65
2021/05/20 08:21:11;;;;;;;3.97;1.10;;;16.30;69.90;;;;;;5095108;28;20154;-65
2021/05/20 08:23:37;;;;;;;1.73;1.13;;;16.40;69.60;;;;;;5095034;28;20495;-65
2021/05/20 08:26:05;;;;;;;1.70;0.90;;;16.50;70.50;;;;;;5095427;28;20533;-71
2021/05/20 08:28:30;;;;;;;1.95;1.10;;;16.60;70.80;;;;;;5095076;28;20105;-64
2021/05/20 08:30:56;;;;;;;4.53;1.17;;;16.80;70.50;;;;;;5095047;28;20058;-64
2021/05/20 08:33:22;;;;;;;2.88;1.23;;;16.90;68.70;;;;;;5094716;28;20036;-64
2021/05/20 08:35:48;;;;;;;4.82;0.95;;;17.10;68.60;;;;;;5110631;28;20034;-64
2021/05/20 08:38:14;;;;;;;2.78;1.00;;;17.10;65.90;;;;;;5095014;28;20027;-65
2021/05/20 08:40:43;;;;;;;3.45;1.02;;;17.20;66.50;;;;;;5094512;28;20523;-65
2021/05/20 08:43:09;;;;;;;2.92;0.70;;;17.30;65.90;;;;;;5095087;28;20024;-64
2021/05/20 08:45:37;;;;;;;1.40;0.70;;;17.40;64.30;;;;;;5094719;28;20020;-64
2021/05/20 08:48:03;;;;;;;4.55;0.90;;;17.40;61.80;;;;;;5094661;28;20024;-64
2021/05/20 08:50:31;;;;;;;2.80;0.60;;;17.50;61.80;;;;;;5094586;28;20024;-65
2021/05/20 08:52:57;;;;;;;2.42;0.80;;;17.60;59.10;;;;;;5094454;28;20054;-64
2021/05/20 08:55:29;;;;;;;2.40;0.70;;;17.70;61.30;;;;;;5094376;28;20523;-65
2021/05/20 08:57:56;;;;;;;3.90;1.08;;;17.70;62.30;;;;;;5094401;28;20024;-65
2021/05/20 09:00:23;;;;;;;2.20;0.75;;;17.90;62.50;;;;;;5094209;28;20032;-64
2021/05/20 09:02:50;;;;;;;2.78;0.80;;;18.00;61.80;;;;;;5094370;28;20499;-65
2021/05/20 09:05:21;;;;;;;1.42;0.70;;;18.10;62.20;;;;;;5094112;28;20490;-65
2021/05/20 09:07:59;;;;;;;2.08;0.70;;;18.10;63.10;;;;;;5094276;28;20024;-65
2021/05/20 09:10:33;;;;;;;4.50;0.70;;;18.20;61.80;;;;;;5094071;28;20024;-65
2021/05/20 09:13:15;;;;;;;5.65;1.00;;;18.30;60.10;;;;;;5094112;28;20089;-65
2021/05/20 09:15:42;;;;;;;1.88;0.80;;;18.50;60.90;;;;;;5094031;28;20073;-65
2021/05/20 09:18:15;;;;;;;4.50;1.10;;;18.60;59.80;;;;;;5093838;28;20024;-65
2021/05/20 09:20:44;;;;;;;3.65;0.93;;;18.70;60.10;;;;;;5094045;28;20032;-65
2021/05/20 09:23:14;;;;;;;4.85;1.15;;;18.80;61.10;;;;;;5092417;28;20035;-71
2021/05/20 09:25:42;;;;;;;3.70;1.17;;;18.80;61.70;;;;;;5092850;28;20032;-66
2021/05/20 09:28:10;;;;;;;2.50;0.90;;;18.90;60.40;;;;;;5077793;28;20051;-70
2021/05/20 09:30:38;;;;;;;3.42;1.10;;;18.90;58.10;;;;;;5073084;28;20056;-65
2021/05/20 09:33:11;;;;;;;3.03;0.90;;;19.00;59.10;;;;;;5073797;28;20043;-65
2021/05/20 09:35:39;;;;;;;18.00;1.35;;;19.10;58.70;;;;;;5073324;28;20071;-66
2021/05/20 09:38:12;;;;;;;1.75;1.00;;;19.20;59.50;;;;;;5073491;28;20032;-65
2021/05/20 09:40:43;;;;;;;4.55;0.90;;;19.30;58.60;;;;;;5073469;28;20035;-66
2021/05/20 09:43:21;;;;;;;3.00;1.05;;;19.40;57.80;;;;;;5073031;28;20031;-67
2021/05/20 09:45:50;;;;;;;4.07;0.93;;;19.50;54.60;;;;;;5071350;28;20025;-66
2021/05/20 09:48:16;;;;;;;1.48;1.10;;;19.50;53.90;;;;;;5072147;28;20024;-66
2021/05/20 09:50:43;;;;;;;2.92;1.05;;;19.50;56.00;;;;;;5071845;28;20021;-66
2021/05/20 09:53:21;;;;;;;4.50;1.13;;;19.60;58.60;;;;;;5072951;28;20038;-66
2021/05/20 09:55:54;;;;;;;2.53;0.82;;;19.70;57.00;;;;;;5072895;28;20055;-66
2021/05/20 09:58:26;;;;;;;3.70;1.10;;;19.80;58.00;;;;;;5073596;28;20024;-66
2021/05/20 10:00:53;;;;;;;;;;;19.80;57.70;;;;;;5073913;28;20472;-66
2021/05/20 10:03:20;;;;;;;1.10;0.88;;;19.90;57.70;;;;;;5073421;28;20384;-66
2021/05/20 10:05:48;;;;;;;1.55;0.70;;;20.00;58.30;;;;;;5073269;28;20074;-66
2021/05/20 10:08:18;;;;;;;1.52;0.70;;;20.00;57.80;;;;;;5073287;28;20024;-66
2021/05/20 10:10:55;;;;;;;1.40;0.70;;;20.10;52.30;;;;;;5072684;28;20099;-66
2021/05/20 10:13:24;;;;;;;2.53;0.98;;;20.20;53.90;;;;;;5073258;28;20380;-66
2021/05/20 10:15:51;;;;;;;3.38;0.80;;;20.20;55.00;;;;;;5073145;28;20044;-66
2021/05/20 10:18:22;;;;;;;4.30;0.90;;;20.30;53.70;;;;;;5073014;28;20058;-66
2021/05/20 10:20:51;;;;;;;2.90;1.10;;;20.40;53.70;;;;;;5073383;28;20029;-66
2021/05/20 10:23:19;;;;;;;3.45;1.10;;;20.50;53.50;;;;;;5073158;28;20021;-66
2021/05/20 10:25:46;;;;;;;4.57;1.05;;;20.60;55.70;;;;;;5073377;28;20020;-66
2021/05/20 10:28:14;;;;;;;4.65;0.77;;;20.60;54.80;;;;;;5072884;28;20115;-66
2021/05/20 10:30:43;;;;;;;1.50;0.80;;;20.70;54.50;;;;;;5072841;28;20035;-67
2021/05/20 10:33:10;;;;;;;3.80;0.80;;;20.80;52.70;;;;;;5072640;28;20503;-68
2021/05/20 10:35:46;;;;;;;6.55;0.82;;;20.80;51.70;;;;;;5072495;28;20032;-71
2021/05/20 10:38:16;;;;;;;0.60;0.60;;;20.90;52.00;;;;;;5072326;28;20588;-67
2021/05/20 10:40:42;;;;;;;0.98;0.57;;;21.00;53.00;;;;;;5072076;28;20082;-70
2021/05/20 10:43:13;;;;;;;3.53;0.60;;;21.00;51.70;;;;;;5072157;28;20021;-68
2021/05/20 10:45:42;;;;;;;2.50;0.80;;;21.10;49.70;;;;;;5071718;28;20017;-67
2021/05/20 10:48:09;;;;;;;1.30;0.70;;;21.10;49.70;;;;;;5072393;28;20028;-68
2021/05/20 10:50:53;;;;;;;4.18;0.50;;;21.20;47.10;;;;;;5072139;28;20021;-70
2021/05/20 10:53:37;;;;;;;0.80;0.50;;;21.30;47.10;;;;;;5071905;28;20040;-67
2021/05/20 10:56:04;;;;;;;0.93;0.50;;;21.30;41.00;;;;;;5071488;28;20105;-67
2021/05/20 10:58:35;;;;;;;0.85;0.60;;;21.40;42.90;;;;;;5069802;28;20029;-67
2021/05/20 11:01:01;;;;;;;1.50;0.90;;;21.50;43.50;;;;;;5072059;28;20029;-67
2021/05/20 11:03:48;;;;;;;1.50;0.50;;;21.50;45.70;;;;;;5072615;28;20025;-67
2021/05/20 11:06:14;;;;;;;0.90;0.60;;;21.60;45.80;;;;;;5072739;28;20024;-67
2021/05/20 11:08:39;;;;;;;3.25;0.70;;;21.70;45.60;;;;;;5072598;28;20017;-67
2021/05/20 11:11:09;;;;;;;1.65;0.63;;;21.80;48.60;;;;;;5072585;28;20029;-67
2021/05/20 11:13:40;;;;;;;3.45;0.90;;;21.90;48.90;;;;;;5072743;28;20032;-67
2021/05/20 11:16:27;;;;;;;2.40;0.82;;;22.00;50.20;;;;;;5072816;28;20413;-67
2021/05/20 11:18:53;;;;;;;1.08;0.70;;;22.10;50.30;;;;;;5072621;28;20020;-67
2021/05/20 11:21:19;;;;;;;1.80;0.73;;;22.20;50.10;;;;;;5073463;28;20024;-68
2021/05/20 11:23:45;;;;;;;1.40;0.70;;;22.20;48.50;;;;;;5075873;28;20033;-67
2021/05/20 11:26:13;;;;;;;1.30;0.60;;;22.20;49.00;;;;;;5075982;28;20028;-67
2021/05/20 11:28:54;;;;;;;1.67;0.60;;;22.30;50.40;;;;;;5075380;28;20538;-67
2021/05/20 11:31:20;;;;;;;1.70;0.75;;;22.30;51.60;;;;;;5076059;28;20370;-67
2021/05/20 11:34:06;;;;;;;3.05;0.90;;;22.50;49.60;;;;;;5075502;28;20521;-67
2021/05/20 11:36:39;;;;;;;4.07;0.70;;;22.60;50.60;;;;;;5075872;28;20028;-68
2021/05/20 11:39:08;;;;;;;1.35;0.90;;;22.60;51.50;;;;;;5075700;28;20108;-67
2021/05/20 11:41:35;;;;;;;5.07;0.93;;;22.70;48.70;;;;;;5075608;28;20369;-69
2021/05/20 11:44:27;;;;;;;4.40;0.70;;;22.70;47.70;;;;;;5074486;28;20397;-67
2021/05/20 11:47:23;;;;;;;3.85;0.70;;;22.80;49.80;;;;;;5072741;28;20799;-67
2021/05/20 11:49:50;;;;;;;4.10;0.95;;;22.80;53.20;;;;;;5067878;28;20040;-68
2021/05/20 11:52:17;;;;;;;4.25;1.08;;;22.90;50.70;;;;;;5075209;28;20040;-67
2021/05/20 11:54:49;;;;;;;4.65;1.00;;;22.90;47.80;;;;;;5075461;28;20068;-67
2021/05/20 11:57:19;;;;;;;;;;;23.00;49.20;;;;;;5076014;28;20043;-67
2021/05/20 11:59:53;;;;;;;4.18;1.17;;;22.90;49.10;;;;;;5074979;28;19905;-67
2021/05/20 12:02:26;;;;;;;1.42;0.73;;;23.00;50.30;;;;;;5072352;28;20032;-68
2021/05/20 12:05:07;;;;;;;1.55;0.90;;;23.00;49.30;;;;;;5072648;28;20056;-67
2021/05/20 12:07:34;;;;;;;1.08;0.60;;;23.00;50.90;;;;;;5075237;28;20032;-67
2021/05/20 12:10:12;;;;;;;2.25;0.85;;;23.00;50.60;;;;;;5075374;28;20029;-66
2021/05/20 12:12:40;;;;;;;0.88;0.50;;;23.00;50.60;;;;;;5074958;28;20033;-67
2021/05/20 12:15:17;;;;;;;1.90;0.70;;;23.00;49.30;;;;;;5075262;28;20036;-67
2021/05/20 12:17:44;;;;;;;1.10;0.57;;;22.90;48.30;;;;;;5075122;28;20025;-67
2021/05/20 12:20:11;;;;;;;1.60;0.50;;;22.90;47.90;;;;;;5074861;28;20093;-67
2021/05/20 12:22:38;;;;;;;1.98;0.70;;;22.90;45.70;;;;;;5074797;28;20397;-67
2021/05/20 12:25:11;;;;;;;1.75;0.55;;;22.90;47.80;;;;;;5074804;28;20035;-68
2021/05/20 12:27:36;;;;;;;2.08;0.73;;;22.80;48.00;;;;;;5074688;28;20028;-67
2021/05/20 12:30:25;;;;;;;5.07;0.63;;;22.70;46.00;;;;;;5074405;28;20029;-67
2021/05/20 12:33:07;;;;;;;1.20;0.70;;;22.70;46.20;;;;;;5073389;28;20119;-67
2021/05/20 12:35:38;;;;;;;2.10;0.80;;;22.60;44.30;;;;;;5074372;28;20061;-66
2021/05/20 12:38:07;;;;;;;1.05;0.60;;;22.60;46.50;;;;;;5074629;28;20266;-66
2021/05/20 12:40:39;;;;;;;1.20;0.50;;;22.60;45.10;;;;;;5074684;28;20028;-67
2021/05/20 12:43:28;;;;;;;1.30;0.60;;;22.60;44.90;;;;;;5074525;28;20028;-67
2021/05/20 12:46:04;;;;;;;1.85;0.57;;;22.50;47.60;;;;;;5074180;28;20031;-67
2021/05/20 12:48:35;;;;;;;0.70;0.50;;;22.40;46.80;;;;;;5074742;28;20485;-67
2021/05/20 12:51:18;;;;;;;2.03;0.50;;;22.50;46.70;;;;;;5074563;28;20032;-67
2021/05/20 12:53:54;;;;;;;3.22;0.70;;;22.40;46.20;;;;;;5074211;28;20036;-67